Owatonna, Minnesota
Current Conditions -  °F | °C
As of 3:55 AM on Sunday 23 Nov 2014 (Local Time) from KOWA Reporting Station
Broken Clouds Broken Clouds  
Wind Chill: 52°   Ceiling: 1000
Heat Index: 52°   Visibility: 10mi
Dew Point: 48°   Wind: 16mph
Humidity: 88%   Direction: 190°S
Pressure: 29.47"   Gusts: NA
Location:  44.09°N, 93.23°W
Report Text: KOWA 230955Z AUTO 19014KT 10SM BKN010 11/09 A2947 RMK AO2
Loading
Personal Weather Stations






























Interactive Weather Map New forecast layout! Learn more

10-Day Weather Forecast

Advertisements
Track Severe Weather on mobile